createdAt,value
2017-04-29T00:00:57.618Z,15.84
2017-04-29T00:02:11.433Z,15.74
2017-04-29T00:03:24.679Z,15.77
2017-04-29T00:04:38.637Z,15.81
2017-04-29T00:05:52.171Z,15.85
2017-04-29T00:07:06.081Z,15.77
2017-04-29T00:08:19.996Z,15.68
2017-04-29T00:09:33.825Z,15.68
2017-04-29T00:10:47.737Z,15.67
2017-04-29T00:12:01.518Z,15.64
2017-04-29T00:13:15.255Z,15.66
2017-04-29T00:14:28.912Z,15.76
2017-04-29T00:15:42.535Z,15.7
2017-04-29T00:16:56.461Z,15.6
2017-04-29T00:18:10.667Z,15.71
2017-04-29T00:19:24.988Z,15.7
2017-04-29T00:20:39.211Z,15.77
2017-04-29T00:21:53.536Z,15.7
2017-04-29T00:23:07.190Z,15.74
2017-04-29T00:24:21.442Z,15.7
2017-04-29T00:25:35.548Z,15.7
2017-04-29T00:26:49.666Z,15.73
2017-04-29T00:28:03.922Z,15.8
2017-04-29T00:29:17.767Z,15.74
2017-04-29T00:30:32.052Z,15.74
2017-04-29T00:31:46.313Z,15.73
2017-04-29T00:33:14.442Z,15.73
2017-04-29T00:34:28.857Z,15.76
2017-04-29T00:35:42.692Z,15.71
2017-04-29T00:36:57.134Z,15.78
2017-04-29T00:38:10.313Z,15.74
2017-04-29T00:39:24.062Z,15.71
2017-04-29T00:40:37.685Z,15.77
2017-04-29T00:41:50.427Z,15.76
2017-04-29T00:43:03.171Z,15.68
2017-04-29T00:44:15.915Z,15.68
2017-04-29T00:45:28.174Z,15.73
2017-04-29T00:46:40.914Z,15.7
2017-04-29T00:47:53.657Z,15.76
2017-04-29T00:49:06.395Z,15.71
2017-04-29T00:50:19.144Z,15.7
2017-04-29T00:51:31.888Z,15.67
2017-04-29T00:52:44.624Z,15.7
2017-04-29T00:53:57.616Z,15.68
2017-04-29T00:55:10.385Z,15.7
2017-04-29T00:56:22.640Z,15.64
2017-04-29T00:57:34.918Z,15.73
2017-04-29T00:58:47.658Z,15.66
2017-04-29T01:00:00.395Z,15.7
2017-04-29T01:01:12.651Z,15.73
2017-04-29T01:02:25.385Z,15.7
2017-04-29T01:03:38.124Z,15.76
2017-04-29T01:04:50.865Z,15.71
2017-04-29T01:06:03.603Z,15.76
2017-04-29T01:07:16.339Z,15.77
2017-04-29T01:08:29.075Z,15.73
2017-04-29T01:09:41.584Z,15.76
2017-04-29T01:10:54.314Z,15.81
2017-04-29T01:12:06.571Z,15.8
2017-04-29T01:13:18.829Z,15.8
2017-04-29T01:14:31.569Z,15.8
2017-04-29T01:15:44.299Z,15.78
2017-04-29T01:16:56.552Z,15.86
2017-04-29T01:18:08.811Z,15.78
2017-04-29T01:19:21.550Z,15.8
2017-04-29T01:20:34.589Z,15.74
2017-04-29T01:21:47.327Z,15.81
2017-04-29T01:23:00.063Z,15.74
2017-04-29T01:24:12.805Z,15.7
2017-04-29T01:25:25.571Z,15.77
2017-04-29T01:26:38.414Z,15.68
2017-04-29T01:27:50.748Z,15.74
2017-04-29T01:29:03.034Z,15.71
2017-04-29T01:30:15.389Z,15.71
2017-04-29T01:31:28.472Z,15.64
2017-04-29T01:32:41.269Z,15.62
2017-04-29T01:33:54.055Z,15.68
2017-04-29T01:35:06.867Z,15.78
2017-04-29T01:36:19.669Z,15.66
2017-04-29T01:37:31.802Z,15.77
2017-04-29T01:38:44.560Z,15.7
2017-04-29T01:39:56.364Z,15.77
2017-04-29T01:41:09.139Z,15.71
2017-04-29T01:42:21.704Z,15.74
2017-04-29T01:43:34.020Z,15.78
2017-04-29T01:44:46.288Z,15.77
2017-04-29T01:45:59.044Z,15.74
2017-04-29T01:47:11.817Z,15.8
2017-04-29T01:48:24.892Z,15.74
2017-04-29T01:49:37.693Z,15.88
2017-04-29T01:50:50.556Z,15.95
2017-04-29T01:52:02.907Z,15.85
2017-04-29T01:53:15.743Z,15.89
2017-04-29T01:54:28.101Z,15.78
2017-04-29T01:55:40.988Z,15.85
2017-04-29T01:56:53.857Z,15.88
2017-04-29T01:58:06.694Z,15.85
2017-04-29T01:59:18.872Z,15.91
2017-04-29T02:00:31.650Z,15.88
2017-04-29T02:01:44.452Z,15.88
2017-04-29T02:02:57.261Z,15.88
2017-04-29T02:04:09.858Z,15.81
2017-04-29T02:05:21.655Z,15.86
2017-04-29T02:06:34.427Z,15.89
2017-04-29T02:07:47.427Z,15.88
2017-04-29T02:09:00.413Z,15.86
2017-04-29T02:10:13.347Z,15.86
2017-04-29T02:11:26.363Z,15.86
2017-04-29T02:12:39.468Z,15.89
2017-04-29T02:13:52.481Z,15.88
2017-04-29T02:15:05.075Z,15.93
2017-04-29T02:16:16.941Z,15.91
2017-04-29T02:17:29.287Z,15.91
2017-04-29T02:18:42.161Z,16.04
2017-04-29T02:19:55.003Z,16.07
2017-04-29T02:21:07.941Z,16.01
2017-04-29T02:22:20.823Z,16.06
2017-04-29T02:23:33.579Z,16.01
2017-04-29T02:24:46.315Z,16.04
2017-04-29T02:25:59.057Z,15.99
2017-04-29T02:27:11.804Z,16.01
2017-04-29T02:28:24.080Z,15.98
2017-04-29T02:29:36.838Z,15.93
2017-04-29T02:30:49.583Z,15.99
2017-04-29T02:32:02.326Z,15.95
2017-04-29T02:33:15.070Z,16.04
2017-04-29T02:34:27.806Z,16.08
2017-04-29T02:35:40.546Z,16.04
2017-04-29T02:36:53.289Z,15.99
2017-04-29T02:38:06.031Z,15.99
2017-04-29T02:39:18.295Z,16.04
2017-04-29T02:40:31.037Z,16.04
2017-04-29T02:41:43.775Z,15.99
2017-04-29T02:42:56.521Z,16.03
2017-04-29T02:44:08.793Z,15.96
2017-04-29T02:45:21.539Z,16.01
2017-04-29T02:46:34.280Z,16.01
2017-04-29T02:47:47.033Z,16.1
2017-04-29T02:48:59.796Z,15.93
2017-04-29T02:50:12.060Z,16.07
2017-04-29T02:51:24.803Z,16.11
2017-04-29T02:52:37.541Z,16.11
2017-04-29T02:53:50.286Z,16.14
2017-04-29T02:55:03.035Z,16.1
2017-04-29T02:56:15.304Z,16.11
2017-04-29T02:57:27.566Z,16.08
2017-04-29T02:58:40.317Z,16.14
2017-04-29T02:59:53.070Z,16.18
2017-04-29T03:01:05.822Z,16.16
2017-04-29T03:02:18.089Z,16.1
2017-04-29T03:03:31.023Z,16.17
2017-04-29T03:04:43.986Z,16.3
2017-04-29T03:05:56.734Z,16.16
2017-04-29T03:07:09.612Z,16.16
2017-04-29T03:08:22.221Z,16.17
2017-04-29T03:09:34.491Z,16.13
2017-04-29T03:10:47.235Z,16.08
2017-04-29T03:11:59.979Z,16.14
2017-04-29T03:13:12.727Z,16.07
2017-04-29T03:14:25.470Z,16.11
2017-04-29T03:15:38.217Z,16.08
2017-04-29T03:16:50.958Z,16.1
2017-04-29T03:18:03.713Z,16.23
2017-04-29T03:19:15.978Z,16.08
2017-04-29T03:20:28.724Z,16.14
2017-04-29T03:21:41.470Z,16.14
2017-04-29T03:22:54.238Z,16.1
2017-04-29T03:24:06.974Z,16.13
2017-04-29T03:25:19.720Z,16.14
2017-04-29T03:26:46.545Z,16.06
2017-04-29T03:27:59.297Z,15.96
2017-04-29T03:29:12.050Z,16.1
2017-04-29T03:30:24.335Z,16.06
2017-04-29T03:31:37.083Z,16.16
2017-04-29T03:32:49.365Z,16.01
2017-04-29T03:34:02.119Z,16.1
2017-04-29T03:35:14.386Z,16.08
2017-04-29T03:36:27.386Z,16.08
2017-04-29T03:37:40.143Z,16.08
2017-04-29T03:38:52.892Z,16.1
2017-04-29T03:40:05.646Z,16.11
2017-04-29T03:41:17.434Z,16.18
2017-04-29T03:42:30.190Z,16.14
2017-04-29T03:43:42.944Z,16.16
2017-04-29T03:44:55.707Z,16.18
2017-04-29T03:46:08.463Z,16.11
2017-04-29T03:47:20.268Z,16.1
2017-04-29T03:48:33.012Z,16.13
2017-04-29T03:49:45.763Z,16.08
2017-04-29T03:50:58.546Z,16.1
2017-04-29T03:52:11.295Z,16.04
2017-04-29T03:53:24.061Z,16.13
2017-04-29T03:54:36.814Z,16.1
2017-04-29T03:55:49.081Z,16.11
2017-04-29T03:57:01.344Z,16.14
2017-04-29T03:58:13.608Z,16.16
2017-04-29T03:59:26.347Z,16.13
2017-04-29T04:00:38.622Z,16.16
2017-04-29T04:01:51.372Z,16.17
2017-04-29T04:03:04.129Z,16.25
2017-04-29T04:04:17.123Z,16.23
2017-04-29T04:05:29.865Z,16.13
2017-04-29T04:06:42.610Z,16.23
2017-04-29T04:07:55.363Z,16.17
2017-04-29T04:09:08.364Z,16.08
2017-04-29T04:10:20.627Z,16.11
2017-04-29T04:11:33.369Z,16.18
2017-04-29T04:12:46.118Z,16.1
2017-04-29T04:13:58.866Z,16.1
2017-04-29T04:15:11.619Z,16.08
2017-04-29T04:16:24.375Z,16.08
2017-04-29T04:17:37.119Z,16.17
2017-04-29T04:18:49.867Z,16.14
2017-04-29T04:20:02.626Z,16.07
2017-04-29T04:21:15.370Z,16.1
2017-04-29T04:22:27.639Z,16.11
2017-04-29T04:23:40.377Z,16.14
2017-04-29T04:24:53.120Z,16.22
2017-04-29T04:26:05.893Z,16.18
2017-04-29T04:27:18.637Z,16.25
2017-04-29T04:28:31.382Z,16.17
2017-04-29T04:29:44.130Z,16.16
2017-04-29T04:30:56.882Z,16.18
2017-04-29T04:32:09.621Z,16.17
2017-04-29T04:33:21.878Z,16.26
2017-04-29T04:34:34.141Z,16.17
2017-04-29T04:35:46.888Z,16.16
2017-04-29T04:36:59.932Z,16.25
2017-04-29T04:38:12.681Z,16.22
2017-04-29T04:39:24.490Z,16.25
2017-04-29T04:40:36.760Z,16.26
2017-04-29T04:41:49.806Z,16.23
2017-04-29T04:43:02.587Z,16.32
2017-04-29T04:44:14.854Z,16.26
2017-04-29T04:45:27.596Z,16.32
2017-04-29T04:46:39.863Z,16.25
2017-04-29T04:47:52.867Z,16.29
2017-04-29T04:49:05.627Z,16.26
2017-04-29T04:50:18.379Z,16.23
2017-04-29T04:51:31.119Z,16.17
2017-04-29T04:52:43.855Z,16.17
2017-04-29T04:53:56.593Z,16.14
2017-04-29T04:55:08.858Z,16.14
2017-04-29T04:56:21.602Z,16.16
2017-04-29T04:57:34.354Z,16.13
2017-04-29T04:59:01.178Z,16.14
2017-04-29T05:00:13.924Z,16.18
2017-04-29T05:01:26.660Z,16.18
2017-04-29T05:02:39.409Z,16.25
2017-04-29T05:03:52.161Z,16.23
2017-04-29T05:05:04.909Z,16.32
2017-04-29T05:06:17.656Z,16.23
2017-04-29T05:07:29.908Z,16.3
2017-04-29T05:08:42.898Z,16.29
2017-04-29T05:09:55.639Z,16.27
2017-04-29T05:11:07.899Z,16.32
2017-04-29T05:12:20.152Z,16.3
2017-04-29T05:13:32.898Z,16.3
2017-04-29T05:14:45.632Z,16.29
2017-04-29T05:15:57.895Z,16.36
2017-04-29T05:17:10.631Z,16.4
2017-04-29T05:18:23.380Z,16.44
2017-04-29T05:19:35.639Z,16.4
2017-04-29T05:20:48.373Z,16.45
2017-04-29T05:22:01.105Z,16.48
2017-04-29T05:23:13.367Z,16.5
2017-04-29T05:24:26.127Z,16.52
2017-04-29T05:25:39.124Z,16.47
2017-04-29T05:26:51.864Z,16.52
2017-04-29T05:28:04.608Z,16.47
2017-04-29T05:29:16.875Z,16.51
2017-04-29T05:30:29.923Z,16.52
2017-04-29T05:31:42.657Z,16.52
2017-04-29T05:32:54.929Z,16.52
2017-04-29T05:34:07.680Z,16.4
2017-04-29T05:35:19.948Z,16.62
2017-04-29T05:36:32.696Z,16.5
2017-04-29T05:37:44.961Z,16.51
2017-04-29T05:38:57.712Z,16.52
2017-04-29T05:40:10.458Z,16.52
2017-04-29T05:41:23.210Z,16.62
2017-04-29T05:42:35.950Z,16.6
2017-04-29T05:43:48.691Z,16.62
2017-04-29T05:45:01.433Z,16.57
2017-04-29T05:46:12.742Z,16.48
2017-04-29T05:47:25.728Z,16.52
2017-04-29T05:48:37.997Z,16.48
2017-04-29T05:49:50.747Z,16.54
2017-04-29T05:51:03.496Z,16.52
2017-04-29T05:52:15.763Z,16.55
2017-04-29T05:53:28.030Z,16.55
2017-04-29T05:54:40.774Z,16.52
2017-04-29T05:55:53.519Z,16.47
2017-04-29T05:57:06.258Z,16.55
2017-04-29T05:58:19.003Z,16.59
2017-04-29T05:59:31.267Z,16.62
2017-04-29T06:00:44.011Z,16.51
2017-04-29T06:01:56.843Z,16.55
2017-04-29T06:03:09.883Z,16.59
2017-04-29T06:04:22.625Z,16.52
2017-04-29T06:05:35.375Z,16.65
2017-04-29T06:06:48.121Z,16.62
2017-04-29T06:08:00.865Z,16.59
2017-04-29T06:09:13.909Z,16.59
2017-04-29T06:10:26.649Z,16.66
2017-04-29T06:11:39.383Z,16.66
2017-04-29T06:12:52.115Z,16.59
2017-04-29T06:14:05.156Z,16.59
2017-04-29T06:15:17.892Z,16.62
2017-04-29T06:16:30.623Z,16.63
2017-04-29T06:17:42.411Z,16.5
2017-04-29T06:18:55.187Z,16.54
2017-04-29T06:20:08.224Z,16.45
2017-04-29T06:21:20.003Z,16.6
2017-04-29T06:22:32.736Z,16.5
2017-04-29T06:23:45.471Z,16.47
2017-04-29T06:24:58.515Z,16.48
2017-04-29T06:26:10.292Z,16.52
2017-04-29T06:27:23.029Z,16.52
2017-04-29T06:28:35.766Z,16.54
2017-04-29T06:29:48.510Z,16.47
2017-04-29T06:31:01.018Z,16.47
2017-04-29T06:32:13.754Z,16.48
2017-04-29T06:33:26.493Z,16.5
2017-04-29T06:34:38.754Z,16.47
2017-04-29T06:35:51.494Z,16.42
2017-04-29T06:37:04.266Z,16.45
2017-04-29T06:38:16.520Z,16.5
2017-04-29T06:39:29.258Z,16.52
2017-04-29T06:40:41.548Z,16.47
2017-04-29T06:41:54.586Z,16.48
2017-04-29T06:43:06.847Z,16.44
2017-04-29T06:44:19.609Z,16.42
2017-04-29T06:45:31.867Z,16.44
2017-04-29T06:46:44.608Z,16.41
2017-04-29T06:47:57.349Z,16.41
2017-04-29T06:49:10.093Z,16.41
2017-04-29T06:50:22.352Z,16.41
2017-04-29T06:51:35.097Z,16.37
2017-04-29T06:52:47.864Z,16.41
2017-04-29T06:54:00.645Z,16.45
2017-04-29T06:55:12.915Z,16.36
2017-04-29T06:56:25.655Z,16.34
2017-04-29T06:57:38.650Z,16.32
2017-04-29T06:58:51.395Z,16.33
2017-04-29T07:00:04.151Z,16.41
2017-04-29T07:01:16.415Z,16.42
2017-04-29T07:02:29.165Z,16.4
2017-04-29T07:03:41.929Z,16.37
2017-04-29T07:04:54.678Z,16.34
2017-04-29T07:06:07.437Z,16.54
2017-04-29T07:07:20.204Z,16.5
2017-04-29T07:08:32.963Z,16.52
2017-04-29T07:09:45.234Z,16.52
2017-04-29T07:10:57.982Z,16.52
2017-04-29T07:12:10.248Z,16.4
2017-04-29T07:13:23.009Z,16.41
2017-04-29T07:14:35.283Z,16.42
2017-04-29T07:15:48.029Z,16.52
2017-04-29T07:17:00.776Z,16.47
2017-04-29T07:18:13.525Z,16.51
2017-04-29T07:19:26.277Z,16.34
2017-04-29T07:20:38.545Z,16.47
2017-04-29T07:21:50.813Z,16.48
2017-04-29T07:23:03.566Z,16.47
2017-04-29T07:24:16.336Z,16.54
2017-04-29T07:25:29.092Z,16.48
2017-04-29T07:26:41.358Z,16.48
2017-04-29T07:27:53.623Z,16.5
2017-04-29T07:29:06.412Z,16.48
2017-04-29T07:30:19.492Z,16.51
2017-04-29T07:31:32.242Z,16.52
2017-04-29T07:32:45.004Z,16.5
2017-04-29T07:33:57.752Z,16.57
2017-04-29T07:35:10.016Z,16.48
2017-04-29T07:36:22.758Z,16.47
2017-04-29T07:37:35.545Z,16.51
2017-04-29T07:38:47.819Z,16.47
2017-04-29T07:40:00.571Z,16.48
2017-04-29T07:41:12.657Z,16.48
2017-04-29T07:42:24.920Z,16.54
2017-04-29T07:43:37.675Z,16.54
2017-04-29T07:44:50.429Z,16.52
2017-04-29T07:46:03.181Z,16.55
2017-04-29T07:47:16.178Z,16.47
2017-04-29T07:48:28.926Z,16.52
2017-04-29T07:49:41.682Z,16.54
2017-04-29T07:50:54.434Z,16.5
2017-04-29T07:52:07.002Z,16.51
2017-04-29T07:53:19.753Z,16.42
2017-04-29T07:54:32.506Z,16.45
2017-04-29T07:55:45.258Z,16.52
2017-04-29T07:56:57.995Z,16.57
2017-04-29T07:58:10.036Z,16.51
2017-04-29T07:59:22.313Z,16.54
2017-04-29T08:00:35.059Z,16.45
2017-04-29T08:01:47.796Z,16.48
2017-04-29T08:03:00.538Z,16.55
2017-04-29T08:04:12.805Z,16.45
2017-04-29T08:05:25.546Z,16.48
2017-04-29T08:06:38.286Z,16.48
2017-04-29T08:07:51.035Z,16.48
2017-04-29T08:09:04.083Z,16.54
2017-04-29T08:10:16.830Z,16.52
2017-04-29T08:11:29.575Z,16.42
2017-04-29T08:12:42.311Z,16.44
2017-04-29T08:13:55.064Z,16.52
2017-04-29T08:15:07.818Z,16.51
2017-04-29T08:16:20.084Z,16.41
2017-04-29T08:17:32.826Z,16.42
2017-04-29T08:18:44.608Z,16.54
2017-04-29T08:19:57.128Z,16.48
2017-04-29T08:21:09.875Z,16.47
2017-04-29T08:22:22.614Z,16.48
2017-04-29T08:23:35.355Z,16.51
2017-04-29T08:24:48.104Z,16.48
2017-04-29T08:26:00.853Z,16.42
2017-04-29T08:27:13.601Z,16.45
2017-04-29T08:28:26.339Z,16.5
2017-04-29T08:29:39.083Z,16.52
2017-04-29T08:30:51.833Z,16.52
2017-04-29T08:32:04.581Z,16.62
2017-04-29T08:33:16.842Z,16.47
2017-04-29T08:34:29.603Z,16.45
2017-04-29T08:35:42.346Z,16.51
2017-04-29T08:36:55.091Z,16.5
2017-04-29T08:38:07.840Z,16.42
2017-04-29T08:39:20.585Z,16.48
2017-04-29T08:40:32.873Z,16.51
2017-04-29T08:41:45.619Z,16.44
2017-04-29T08:42:58.365Z,16.52
2017-04-29T08:44:10.635Z,16.45
2017-04-29T08:45:22.911Z,16.47
2017-04-29T08:46:35.653Z,16.48
2017-04-29T08:47:48.392Z,16.42
2017-04-29T08:49:01.139Z,16.44
2017-04-29T08:50:13.890Z,16.54
2017-04-29T08:51:26.633Z,16.45
2017-04-29T08:52:38.902Z,16.48
2017-04-29T08:53:51.643Z,16.48
2017-04-29T08:55:04.396Z,16.42
2017-04-29T08:56:17.142Z,16.51
2017-04-29T08:57:29.888Z,16.5
2017-04-29T08:58:42.636Z,16.51
2017-04-29T08:59:55.396Z,16.57
2017-04-29T09:01:08.147Z,16.52
2017-04-29T09:02:20.893Z,16.55
2017-04-29T09:03:33.880Z,16.57
2017-04-29T09:04:46.630Z,16.51
2017-04-29T09:05:58.412Z,16.51
2017-04-29T09:07:11.163Z,16.5
2017-04-29T09:08:23.915Z,16.45
2017-04-29T09:09:36.654Z,16.52
2017-04-29T09:10:49.400Z,16.52
2017-04-29T09:12:02.157Z,16.54
2017-04-29T09:13:14.907Z,16.51
2017-04-29T09:14:27.950Z,16.48
2017-04-29T09:15:40.690Z,16.5
2017-04-29T09:16:52.962Z,16.48
2017-04-29T09:18:05.707Z,16.45
2017-04-29T09:19:17.742Z,16.52
2017-04-29T09:20:30.492Z,16.47
2017-04-29T09:21:43.230Z,16.5
2017-04-29T09:22:55.976Z,16.51
2017-04-29T09:24:08.718Z,16.44
2017-04-29T09:25:22.520Z,16.54
2017-04-29T09:26:35.264Z,16.5
2017-04-29T09:27:48.013Z,16.54
2017-04-29T09:29:00.760Z,16.5
2017-04-29T09:30:13.017Z,16.59
2017-04-29T09:31:25.766Z,16.57
2017-04-29T09:32:38.514Z,16.51
2017-04-29T09:33:51.260Z,16.6
2017-04-29T09:35:04.006Z,16.51
2017-04-29T09:36:16.517Z,16.62
2017-04-29T09:37:29.265Z,16.62
2017-04-29T09:38:42.013Z,16.65
2017-04-29T09:39:54.757Z,16.6
2017-04-29T09:41:07.496Z,16.59
2017-04-29T09:42:20.242Z,16.66
2017-04-29T09:43:32.509Z,16.62
2017-04-29T09:44:45.256Z,16.62
2017-04-29T09:45:57.995Z,16.66
2017-04-29T09:47:10.262Z,16.62
2017-04-29T09:48:23.021Z,16.67
2017-04-29T09:49:35.768Z,16.69
2017-04-29T09:50:48.514Z,16.7
2017-04-29T09:52:01.552Z,16.77
2017-04-29T09:53:13.820Z,16.75
2017-04-29T09:54:26.567Z,16.69
2017-04-29T09:55:38.818Z,16.72
2017-04-29T09:56:51.079Z,16.66
2017-04-29T09:58:03.823Z,16.66
2017-04-29T09:59:15.614Z,16.65
2017-04-29T10:00:28.354Z,16.7
2017-04-29T10:01:40.618Z,16.77
2017-04-29T10:02:53.399Z,16.75
2017-04-29T10:04:06.151Z,16.78
2017-04-29T10:05:18.886Z,16.78
2017-04-29T10:06:31.616Z,16.82
2017-04-29T10:07:43.869Z,16.84
2017-04-29T10:08:56.860Z,16.9
2017-04-29T10:10:08.645Z,16.88
2017-04-29T10:11:21.407Z,16.91
2017-04-29T10:12:34.141Z,16.87
2017-04-29T10:13:46.885Z,16.88
2017-04-29T10:14:59.633Z,16.9
2017-04-29T10:16:12.370Z,16.92
2017-04-29T10:17:25.138Z,16.95
2017-04-29T10:18:37.874Z,16.87
2017-04-29T10:19:50.863Z,16.85
2017-04-29T10:21:03.607Z,16.87
2017-04-29T10:22:16.341Z,16.98
2017-04-29T10:23:29.088Z,16.91
2017-04-29T10:24:41.833Z,16.96
2017-04-29T10:25:54.580Z,17
2017-04-29T10:27:07.315Z,16.98
2017-04-29T10:28:19.581Z,16.91
2017-04-29T10:29:31.848Z,16.9
2017-04-29T10:30:44.847Z,16.92
2017-04-29T10:31:57.109Z,16.96
2017-04-29T10:33:09.368Z,16.92
2017-04-29T10:34:22.119Z,16.92
2017-04-29T10:35:34.385Z,16.92
2017-04-29T10:36:47.129Z,16.98
2017-04-29T10:37:59.874Z,16.98
2017-04-29T10:39:12.618Z,16.95
2017-04-29T10:40:25.367Z,16.92
2017-04-29T10:41:38.408Z,16.92
2017-04-29T10:42:50.670Z,16.95
2017-04-29T10:44:03.419Z,16.98
2017-04-29T10:45:15.686Z,16.91
2017-04-29T10:46:28.734Z,17.02
2017-04-29T10:47:41.474Z,17.03
2017-04-29T10:48:54.220Z,16.98
2017-04-29T10:50:06.961Z,16.95
2017-04-29T10:51:19.233Z,17.02
2017-04-29T10:52:32.221Z,17.07
2017-04-29T10:53:44.485Z,16.98
2017-04-29T10:54:57.235Z,17
2017-04-29T10:56:09.991Z,17.06
2017-04-29T10:57:22.564Z,17.17
2017-04-29T10:58:35.312Z,17.17
2017-04-29T10:59:48.060Z,17.2
2017-04-29T11:01:00.330Z,17.21
2017-04-29T11:02:13.086Z,17.15
2017-04-29T11:03:25.838Z,17.18
2017-04-29T11:04:38.593Z,17.2
2017-04-29T11:05:50.868Z,17.17
2017-04-29T11:07:03.609Z,17.28
2017-04-29T11:08:29.961Z,17.35
2017-04-29T11:09:42.712Z,17.35
2017-04-29T11:10:54.978Z,17.33
2017-04-29T11:12:07.248Z,17.33
2017-04-29T11:13:19.523Z,17.3
2017-04-29T11:14:31.799Z,17.33
2017-04-29T11:15:44.075Z,17.3
2017-04-29T11:16:56.826Z,17.27
2017-04-29T11:18:09.577Z,17.28
2017-04-29T11:19:21.365Z,17.3
2017-04-29T11:20:34.116Z,17.17
2017-04-29T11:21:46.902Z,17.17
2017-04-29T11:22:59.648Z,17.32
2017-04-29T11:24:12.400Z,17.3
2017-04-29T11:25:24.752Z,17.3
2017-04-29T11:26:37.017Z,17.38
2017-04-29T11:27:49.767Z,17.36
2017-04-29T11:29:02.049Z,17.3
2017-04-29T11:30:14.792Z,17.39
2017-04-29T11:31:27.532Z,17.45
2017-04-29T11:32:40.277Z,17.47
2017-04-29T11:33:53.030Z,17.49
2017-04-29T11:35:06.031Z,17.43
2017-04-29T11:36:18.296Z,17.49
2017-04-29T11:37:31.039Z,17.6
2017-04-29T11:38:43.791Z,17.54
2017-04-29T11:39:56.543Z,17.6
2017-04-29T11:41:09.295Z,17.6
2017-04-29T11:42:22.041Z,17.53
2017-04-29T11:43:34.790Z,17.63
2017-04-29T11:44:47.537Z,17.57
2017-04-29T11:45:59.812Z,17.68
2017-04-29T11:47:12.558Z,17.73
2017-04-29T11:48:25.310Z,17.74
2017-04-29T11:49:37.595Z,17.7
2017-04-29T11:50:49.872Z,17.76
2017-04-29T11:52:02.870Z,17.65
2017-04-29T11:53:15.138Z,17.71
2017-04-29T11:54:27.407Z,17.77
2017-04-29T11:55:39.229Z,17.83
2017-04-29T11:56:51.976Z,17.92
2017-04-29T11:58:04.726Z,17.91
2017-04-29T11:59:17.003Z,17.94
2017-04-29T12:00:29.764Z,17.91
2017-04-29T12:01:42.036Z,17.84
2017-04-29T12:02:55.039Z,17.94
2017-04-29T12:04:07.309Z,18.04
2017-04-29T12:05:20.063Z,18.09
2017-04-29T12:06:32.337Z,18.04
2017-04-29T12:07:45.344Z,18.13
2017-04-29T12:08:57.609Z,18.13
2017-04-29T12:10:10.352Z,18.16
2017-04-29T12:11:23.092Z,18.05
2017-04-29T12:12:35.353Z,17.89
2017-04-29T12:14:02.182Z,17.94
2017-04-29T12:15:13.976Z,17.89
2017-04-29T12:16:26.724Z,18.02
2017-04-29T12:17:39.466Z,18.14
2017-04-29T12:18:52.457Z,18.23
2017-04-29T12:20:04.719Z,18.32
2017-04-29T12:21:16.499Z,18.26
2017-04-29T12:22:29.242Z,18.38
2017-04-29T12:23:41.976Z,18.44
2017-04-29T12:24:54.713Z,18.44
2017-04-29T12:26:07.454Z,18.59
2017-04-29T12:27:20.196Z,18.51
2017-04-29T12:28:32.510Z,18.49
2017-04-29T12:29:44.771Z,18.53
2017-04-29T12:30:57.029Z,18.62
2017-04-29T12:32:09.773Z,18.54
2017-04-29T12:33:22.028Z,18.57
2017-04-29T12:34:34.770Z,18.54
2017-04-29T12:35:46.552Z,18.65
2017-04-29T12:36:59.295Z,18.66
2017-04-29T12:38:12.030Z,18.76
2017-04-29T12:39:24.777Z,18.83
2017-04-29T12:40:37.513Z,18.82
2017-04-29T12:41:50.248Z,18.94
2017-04-29T12:43:02.993Z,18.96
2017-04-29T12:44:15.737Z,19.09
2017-04-29T12:45:28.779Z,19.13
2017-04-29T12:46:41.515Z,19.16
2017-04-29T12:47:54.256Z,19.3
2017-04-29T12:49:06.997Z,19.34
2017-04-29T12:50:19.259Z,19.32
2017-04-29T12:51:31.996Z,19.39
2017-04-29T12:52:44.257Z,19.43
2017-04-29T12:53:56.523Z,19.39
2017-04-29T12:55:09.266Z,19.45
2017-04-29T12:56:22.303Z,19.42
2017-04-29T12:57:34.562Z,19.4
2017-04-29T12:58:47.307Z,19.53
2017-04-29T12:59:59.088Z,19.53
2017-04-29T13:01:11.349Z,19.57
2017-04-29T13:02:23.616Z,19.72
2017-04-29T13:03:36.358Z,19.65
2017-04-29T13:04:49.098Z,19.62
2017-04-29T13:06:01.361Z,19.65
2017-04-29T13:07:14.101Z,19.78
2017-04-29T13:08:27.149Z,19.72
2017-04-29T13:09:39.893Z,19.71
2017-04-29T13:10:52.633Z,19.67
2017-04-29T13:12:05.377Z,19.7
2017-04-29T13:13:17.671Z,19.62
2017-04-29T13:14:30.408Z,19.62
2017-04-29T13:15:43.146Z,19.75
2017-04-29T13:16:55.408Z,19.7
2017-04-29T13:18:07.672Z,19.76
2017-04-29T13:19:20.421Z,19.79
2017-04-29T13:20:32.682Z,19.7
2017-04-29T13:21:45.416Z,19.82
2017-04-29T13:22:58.152Z,19.83
2017-04-29T13:24:10.896Z,19.83
2017-04-29T13:25:23.637Z,19.87
2017-04-29T13:26:35.898Z,19.68
2017-04-29T13:27:48.646Z,19.68
2017-04-29T13:29:01.392Z,19.67
2017-04-29T13:30:13.658Z,19.7
2017-04-29T13:31:25.444Z,19.78
2017-04-29T13:32:38.180Z,19.68
2017-04-29T13:33:50.920Z,19.82
2017-04-29T13:35:03.919Z,19.82
2017-04-29T13:36:16.184Z,19.83
2017-04-29T13:37:28.454Z,19.82
2017-04-29T13:38:40.721Z,19.94
2017-04-29T13:39:53.458Z,20.02
2017-04-29T13:41:20.308Z,20.1
2017-04-29T13:42:33.049Z,20.15
2017-04-29T13:43:45.313Z,20.12
2017-04-29T13:44:58.057Z,20.17
2017-04-29T13:46:10.797Z,20.38
2017-04-29T13:47:23.058Z,20.53
2017-04-29T13:48:35.798Z,20.64
2017-04-29T13:49:48.540Z,20.76
2017-04-29T13:51:01.529Z,20.81
2017-04-29T13:52:14.264Z,20.83
2017-04-29T13:53:27.010Z,20.91
2017-04-29T13:54:39.751Z,20.9
2017-04-29T13:55:52.490Z,21.05
2017-04-29T13:57:05.006Z,21.08
2017-04-29T13:58:17.271Z,21.09
2017-04-29T13:59:30.016Z,21.03
2017-04-29T14:00:42.756Z,20.87
2017-04-29T14:01:55.500Z,20.72
2017-04-29T14:03:07.770Z,20.66
2017-04-29T14:04:20.028Z,20.69
2017-04-29T14:05:32.286Z,20.81
2017-04-29T14:06:45.022Z,20.83
2017-04-29T14:07:57.763Z,20.94
2017-04-29T14:09:10.029Z,20.97
2017-04-29T14:10:22.287Z,21.11
2017-04-29T14:11:34.560Z,21.12
2017-04-29T14:12:47.304Z,21.09
2017-04-29T14:14:00.047Z,21.05
2017-04-29T14:15:12.313Z,20.91
2017-04-29T14:16:24.574Z,20.93
2017-04-29T14:17:37.314Z,21.01
2017-04-29T14:18:50.050Z,21.08
2017-04-29T14:20:02.805Z,21.06
2017-04-29T14:21:15.066Z,21.16
2017-04-29T14:22:27.813Z,21.19
2017-04-29T14:23:40.810Z,21.19
2017-04-29T14:24:53.555Z,21.11
2017-04-29T14:26:06.309Z,21.21
2017-04-29T14:27:19.058Z,21.19
2017-04-29T14:28:31.323Z,21.22
2017-04-29T14:29:44.074Z,21.28
2017-04-29T14:30:56.831Z,21.31
2017-04-29T14:32:09.581Z,21.33
2017-04-29T14:33:22.335Z,21.31
2017-04-29T14:34:49.173Z,21.24
2017-04-29T14:36:01.451Z,21.09
2017-04-29T14:37:13.718Z,21.12
2017-04-29T14:38:25.993Z,21.09
2017-04-29T14:39:38.268Z,21.21
2017-04-29T14:40:50.543Z,21.22
2017-04-29T14:42:03.294Z,21.26
2017-04-29T14:43:15.567Z,21.28
2017-04-29T14:44:28.315Z,21.22
2017-04-29T14:45:40.594Z,21.26
2017-04-29T14:46:53.352Z,21.24
2017-04-29T14:48:05.623Z,21.24
2017-04-29T14:49:17.439Z,21.24
2017-04-29T14:50:30.191Z,21.21
2017-04-29T14:51:42.944Z,21.21
2017-04-29T14:52:55.693Z,21.24
2017-04-29T14:54:07.969Z,21.22
2017-04-29T14:55:20.725Z,21.19
2017-04-29T14:56:33.469Z,21.18
2017-04-29T14:57:46.225Z,21.24
2017-04-29T14:58:58.979Z,21.24
2017-04-29T15:00:11.722Z,21.26
2017-04-29T15:01:24.474Z,21.22
2017-04-29T15:02:37.228Z,21.22
2017-04-29T15:03:49.985Z,21.34
2017-04-29T15:05:02.255Z,21.36
2017-04-29T15:06:15.000Z,21.28
2017-04-29T15:07:27.757Z,21.28
2017-04-29T15:08:40.500Z,21.31
2017-04-29T15:09:53.274Z,21.28
2017-04-29T15:11:05.543Z,21.28
2017-04-29T15:12:18.544Z,21.33
2017-04-29T15:13:31.303Z,21.26
2017-04-29T15:14:44.046Z,21.08
2017-04-29T15:15:56.796Z,21.03
2017-04-29T15:17:09.069Z,20.93
2017-04-29T15:18:21.825Z,20.78
2017-04-29T15:19:34.579Z,20.71
2017-04-29T15:20:47.323Z,20.44
2017-04-29T15:22:00.076Z,20.16
2017-04-29T15:23:12.829Z,20.19
2017-04-29T15:24:25.097Z,20.16
2017-04-29T15:25:37.849Z,20.2
2017-04-29T15:26:50.115Z,20.15
2017-04-29T15:28:02.865Z,20.12
2017-04-29T15:29:15.867Z,20.12
2017-04-29T15:30:28.139Z,20.08
2017-04-29T15:31:40.883Z,20.15
2017-04-29T15:32:53.642Z,20.12
2017-04-29T15:34:06.395Z,20.13
2017-04-29T15:35:18.184Z,20.12
2017-04-29T15:36:30.938Z,20.07
2017-04-29T15:37:43.691Z,19.94
2017-04-29T15:38:56.470Z,19.94
2017-04-29T15:40:08.767Z,19.95
2017-04-29T15:41:21.029Z,19.86